createdAt,value
2023-01-11T08:24:17.921Z,2.20
2023-01-11T08:26:44.576Z,2.45
2023-01-11T08:29:11.317Z,1.67
2023-01-11T08:31:37.634Z,3.55
2023-01-11T08:34:03.926Z,1.63
2023-01-11T08:36:31.398Z,1.77
2023-01-11T08:38:58.116Z,1.50
2023-01-11T08:41:24.678Z,2.33
2023-01-11T08:43:50.996Z,2.22
2023-01-11T08:46:18.499Z,3.08
2023-01-11T08:48:46.363Z,2.85
2023-01-11T08:51:13.324Z,1.33
2023-01-11T08:53:39.581Z,2.15
2023-01-11T08:56:06.009Z,1.92
2023-01-11T08:58:32.401Z,3.35
2023-01-11T09:01:01.831Z,2.47
2023-01-11T09:03:28.788Z,4.27
2023-01-11T09:05:56.075Z,6.68
2023-01-11T09:08:22.937Z,9.80
2023-01-11T09:10:49.794Z,6.57
2023-01-11T09:13:16.294Z,7.82
2023-01-11T09:15:45.743Z,8.35
2023-01-11T09:18:12.653Z,8.52
2023-01-11T09:20:38.981Z,6.93
2023-01-11T09:23:05.288Z,4.95
2023-01-11T09:25:31.581Z,6.85
2023-01-11T09:27:57.855Z,4.13
2023-01-11T09:30:24.680Z,5.70
2023-01-11T09:32:51.703Z,4.07
2023-01-11T09:35:18.480Z,8.75
2023-01-11T09:37:48.971Z,3.93
2023-01-11T09:40:20.500Z,4.78
2023-01-11T09:42:51.603Z,3.65
2023-01-11T09:50:39.148Z,2.53
2023-01-11T09:53:08.918Z,2.78
2023-01-11T10:04:05.594Z,3.20
2023-01-11T10:18:31.356Z,3.60
2023-01-11T10:18:38.957Z,6.22
2023-01-11T10:21:05.860Z,11.93
2023-01-11T10:23:46.765Z,7.73
2023-01-11T10:26:23.399Z,9.80
2023-01-11T10:29:21.397Z,13.13
2023-01-11T10:32:12.283Z,15.70
2023-01-11T10:35:01.492Z,14.43
2023-01-11T10:37:51.802Z,12.18
2023-01-11T10:40:57.996Z,11.13
2023-01-11T10:43:25.654Z,6.22
2023-01-11T10:45:53.416Z,12.50
2023-01-11T10:48:26.628Z,10.88
2023-01-11T10:51:12.814Z,12.50
2023-01-11T10:53:50.367Z,10.48
2023-01-11T10:56:21.596Z,7.93
2023-01-11T11:01:37.647Z,8.20
2023-01-11T11:07:01.568Z,11.48
2023-01-11T11:09:47.726Z,3.85
2023-01-11T11:12:18.180Z,6.03
2023-01-11T11:17:37.497Z,9.95
2023-01-11T11:20:23.700Z,6.85
2023-01-11T11:22:50.716Z,7.97
2023-01-11T11:25:20.174Z,11.00
2023-01-11T11:27:50.959Z,5.28
2023-01-11T11:33:29.871Z,6.47
2023-01-11T11:38:36.398Z,5.63
2023-01-11T11:43:43.856Z,5.13
2023-01-11T11:46:22.719Z,10.43
2023-01-11T11:49:09.046Z,6.50
2023-01-11T11:51:35.336Z,7.27
2023-01-11T11:54:01.844Z,6.40
2023-01-11T11:56:30.522Z,10.35
2023-01-11T11:58:57.564Z,6.85
2023-01-11T12:01:27.385Z,3.90
2023-01-11T12:03:55.490Z,4.38
2023-01-11T12:06:24.498Z,6.65
2023-01-11T12:08:50.998Z,7.20
2023-01-11T12:11:23.948Z,4.78
2023-01-11T12:14:01.554Z,7.63
2023-01-11T12:16:31.176Z,9.77
2023-01-11T12:18:58.581Z,5.88
2023-01-11T12:21:26.018Z,5.25
2023-01-11T12:24:12.237Z,7.82
2023-01-11T12:26:58.709Z,3.80
2023-01-11T12:29:30.560Z,9.52
2023-01-11T12:34:43.596Z,5.75
2023-01-11T12:37:23.399Z,3.80
2023-01-11T12:40:09.691Z,4.45
2023-01-11T12:42:55.941Z,4.50
2023-01-11T12:45:42.223Z,6.40
2023-01-11T12:48:17.806Z,3.42
2023-01-11T12:56:24.407Z,6.22
2023-01-11T13:01:48.026Z,5.83
2023-01-11T13:04:28.215Z,6.37
2023-01-11T13:07:00.086Z,7.75
2023-01-11T13:09:46.383Z,5.00
2023-01-11T13:12:32.667Z,5.93
2023-01-11T13:15:03.317Z,7.95
2023-01-11T13:17:36.391Z,6.47
2023-01-11T13:23:00.949Z,5.53
2023-01-11T13:25:28.602Z,10.47
2023-01-11T13:27:57.328Z,7.78
2023-01-11T13:30:24.408Z,6.00
2023-01-11T13:32:54.043Z,6.97
2023-01-11T13:35:27.034Z,6.03
2023-01-11T13:37:58.737Z,6.68
2023-01-11T13:40:26.936Z,4.05
2023-01-11T13:42:56.525Z,9.57
2023-01-11T13:45:33.770Z,8.00
2023-01-11T13:48:06.145Z,34.55
2023-01-11T13:55:56.005Z,24.52
2023-01-11T13:58:28.093Z,32.20
2023-01-11T14:01:00.728Z,34.73
2023-01-11T14:08:53.347Z,33.20
2023-01-11T14:11:29.971Z,47.13
2023-01-11T14:14:20.315Z,49.33
2023-01-11T14:19:52.465Z,32.55
2023-01-11T14:22:37.897Z,42.17
